sensor_id;sensor_type;location;lat;lon;timestamp;pressure;altitude;pressure_sealevel;temperature;humidity
55610;BME280;41486;52.502;13.486;2023-07-08T00:00:17;101546.34;;;19.28;64.78
55610;BME280;41486;52.502;13.486;2023-07-08T00:02:49;101554.72;;;18.97;66.25
55610;BME280;41486;52.502;13.486;2023-07-08T00:05:19;101551.28;;;18.86;66.63
55610;BME280;41486;52.502;13.486;2023-07-08T00:07:48;101542.78;;;19.19;64.99
55610;BME280;41486;52.502;13.486;2023-07-08T00:10:18;101551.47;;;18.75;67.76
55610;BME280;41486;52.502;13.486;2023-07-08T00:12:49;101548.06;;;18.55;68.47
55610;BME280;41486;52.502;13.486;2023-07-08T00:15:18;101550.22;;;18.69;69.70
55610;BME280;41486;52.502;13.486;2023-07-08T00:17:49;101544.09;;;18.87;69.24
55610;BME280;41486;52.502;13.486;2023-07-08T00:20:32;101542.78;;;18.45;71.84
55610;BME280;41486;52.502;13.486;2023-07-08T00:23:03;101540.56;;;18.68;70.19
55610;BME280;41486;52.502;13.486;2023-07-08T00:25:32;101546.09;;;18.57;70.99
55610;BME280;41486;52.502;13.486;2023-07-08T00:28:00;101538.72;;;18.97;67.37
55610;BME280;41486;52.502;13.486;2023-07-08T00:30:30;101541.09;;;18.44;72.05
55610;BME280;41486;52.502;13.486;2023-07-08T00:32:59;101546.59;;;18.70;68.40
55610;BME280;41486;52.502;13.486;2023-07-08T00:35:31;101546.31;;;18.36;71.26
55610;BME280;41486;52.502;13.486;2023-07-08T00:38:00;101541.00;;;18.64;69.18
55610;BME280;41486;52.502;13.486;2023-07-08T00:40:31;101537.81;;;19.06;66.20
55610;BME280;41486;52.502;13.486;2023-07-08T00:43:03;101541.09;;;18.72;68.50
55610;BME280;41486;52.502;13.486;2023-07-08T00:45:41;101546.81;;;19.05;66.27
55610;BME280;41486;52.502;13.486;2023-07-08T00:48:33;101537.84;;;19.42;63.69
55610;BME280;41486;52.502;13.486;2023-07-08T00:51:02;101540.88;;;19.11;65.32
55610;BME280;41486;52.502;13.486;2023-07-08T00:53:36;101545.13;;;19.04;66.07
55610;BME280;41486;52.502;13.486;2023-07-08T00:56:08;101547.22;;;19.73;61.88
55610;BME280;41486;52.502;13.486;2023-07-08T00:58:39;101543.00;;;19.44;63.13
55610;BME280;41486;52.502;13.486;2023-07-08T01:01:10;101546.31;;;18.91;65.07
55610;BME280;41486;52.502;13.486;2023-07-08T01:03:47;101532.78;;;18.57;66.52
55610;BME280;41486;52.502;13.486;2023-07-08T01:06:18;101535.00;;;18.62;66.16
55610;BME280;41486;52.502;13.486;2023-07-08T01:08:48;101540.41;;;18.42;67.81
55610;BME280;41486;52.502;13.486;2023-07-08T01:11:21;101542.84;;;18.25;70.07
55610;BME280;41486;52.502;13.486;2023-07-08T01:13:50;101540.84;;;18.37;70.43
55610;BME280;41486;52.502;13.486;2023-07-08T01:16:20;101540.34;;;18.24;70.63
55610;BME280;41486;52.502;13.486;2023-07-08T01:18:52;101538.31;;;17.98;72.35
55610;BME280;41486;52.502;13.486;2023-07-08T01:21:30;101527.66;;;17.98;72.13
55610;BME280;41486;52.502;13.486;2023-07-08T01:24:01;101531.72;;;18.02;71.56
55610;BME280;41486;52.502;13.486;2023-07-08T01:26:33;101530.19;;;17.90;72.88
55610;BME280;41486;52.502;13.486;2023-07-08T01:29:03;101532.41;;;18.42;69.33
55610;BME280;41486;52.502;13.486;2023-07-08T01:31:31;101524.03;;;19.11;65.07
55610;BME280;41486;52.502;13.486;2023-07-08T01:34:00;101521.00;;;19.23;64.96
55610;BME280;41486;52.502;13.486;2023-07-08T01:36:31;101525.47;;;19.05;65.73
55610;BME280;41486;52.502;13.486;2023-07-08T01:39:03;101524.28;;;18.71;67.29
55610;BME280;41486;52.502;13.486;2023-07-08T01:41:31;101520.31;;;18.48;68.74
55610;BME280;41486;52.502;13.486;2023-07-08T01:44:00;101518.00;;;17.97;71.92
55610;BME280;41486;52.502;13.486;2023-07-08T01:46:28;101524.59;;;17.73;74.15
55610;BME280;41486;52.502;13.486;2023-07-08T01:49:00;101517.19;;;18.24;71.27
55610;BME280;41486;52.502;13.486;2023-07-08T01:51:29;101515.22;;;18.26;70.55
55610;BME280;41486;52.502;13.486;2023-07-08T01:53:57;101520.72;;;18.25;70.68
55610;BME280;41486;52.502;13.486;2023-07-08T01:56:28;101514.47;;;18.06;72.12
55610;BME280;41486;52.502;13.486;2023-07-08T01:58:56;101515.63;;;17.74;74.12
55610;BME280;41486;52.502;13.486;2023-07-08T02:01:24;101511.44;;;17.72;74.93
55610;BME280;41486;52.502;13.486;2023-07-08T02:03:52;101504.69;;;17.87;74.41
55610;BME280;41486;52.502;13.486;2023-07-08T02:06:20;101511.38;;;17.91;74.25
55610;BME280;41486;52.502;13.486;2023-07-08T02:08:51;101502.16;;;18.33;70.84
55610;BME280;41486;52.502;13.486;2023-07-08T02:11:19;101511.53;;;18.00;73.36
55610;BME280;41486;52.502;13.486;2023-07-08T02:13:50;101510.50;;;18.20;71.77
55610;BME280;41486;52.502;13.486;2023-07-08T02:16:18;101507.25;;;17.59;76.27
55610;BME280;41486;52.502;13.486;2023-07-08T02:18:46;101506.69;;;17.75;75.72
55610;BME280;41486;52.502;13.486;2023-07-08T02:21:14;101513.91;;;17.83;75.46
55610;BME280;41486;52.502;13.486;2023-07-08T02:23:49;101512.16;;;17.54;77.31
55610;BME280;41486;52.502;13.486;2023-07-08T02:26:18;101505.84;;;17.65;77.01
55610;BME280;41486;52.502;13.486;2023-07-08T02:28:46;101512.88;;;17.27;80.15
55610;BME280;41486;52.502;13.486;2023-07-08T02:31:18;101510.66;;;17.42;78.59
55610;BME280;41486;52.502;13.486;2023-07-08T02:33:50;101508.94;;;17.70;76.21
55610;BME280;41486;52.502;13.486;2023-07-08T02:36:19;101509.13;;;18.06;73.45
55610;BME280;41486;52.502;13.486;2023-07-08T02:38:47;101511.91;;;17.57;77.56
55610;BME280;41486;52.502;13.486;2023-07-08T02:41:15;101507.28;;;17.30;80.03
55610;BME280;41486;52.502;13.486;2023-07-08T02:43:43;101505.75;;;17.17;80.45
55610;BME280;41486;52.502;13.486;2023-07-08T02:46:12;101510.31;;;17.74;75.73
55610;BME280;41486;52.502;13.486;2023-07-08T02:48:42;101502.63;;;17.61;76.03
55610;BME280;41486;52.502;13.486;2023-07-08T02:51:11;101503.50;;;17.13;79.23
55610;BME280;41486;52.502;13.486;2023-07-08T02:53:39;101508.75;;;17.81;75.82
55610;BME280;41486;52.502;13.486;2023-07-08T02:56:07;101510.38;;;17.35;77.50
55610;BME280;41486;52.502;13.486;2023-07-08T02:58:36;101504.75;;;16.99;81.62
55610;BME280;41486;52.502;13.486;2023-07-08T03:01:05;101503.19;;;16.96;82.77
55610;BME280;41486;52.502;13.486;2023-07-08T03:03:36;101502.22;;;16.97;82.18
55610;BME280;41486;52.502;13.486;2023-07-08T03:06:06;101497.63;;;17.29;79.84
55610;BME280;41486;52.502;13.486;2023-07-08T03:08:34;101504.34;;;17.23;78.64
55610;BME280;41486;52.502;13.486;2023-07-08T03:11:04;101499.38;;;16.89;82.00
55610;BME280;41486;52.502;13.486;2023-07-08T03:13:33;101500.84;;;17.42;78.75
55610;BME280;41486;52.502;13.486;2023-07-08T03:16:02;101507.41;;;17.28;78.26
55610;BME280;41486;52.502;13.486;2023-07-08T03:18:40;101500.28;;;16.99;79.70
55610;BME280;41486;52.502;13.486;2023-07-08T03:21:17;101499.38;;;17.77;75.94
55610;BME280;41486;52.502;13.486;2023-07-08T03:23:47;101497.78;;;18.14;72.80
55610;BME280;41486;52.502;13.486;2023-07-08T03:26:19;101495.97;;;18.42;71.99
55610;BME280;41486;52.502;13.486;2023-07-08T03:28:48;101495.09;;;18.14;71.74
55610;BME280;41486;52.502;13.486;2023-07-08T03:31:17;101492.47;;;17.94;73.57
55610;BME280;41486;52.502;13.486;2023-07-08T03:33:48;101491.97;;;17.81;74.76
55610;BME280;41486;52.502;13.486;2023-07-08T03:36:19;101492.03;;;18.09;72.47
55610;BME280;41486;52.502;13.486;2023-07-08T03:38:51;101496.44;;;18.56;69.09
55610;BME280;41486;52.502;13.486;2023-07-08T03:41:20;101492.72;;;18.67;68.42
55610;BME280;41486;52.502;13.486;2023-07-08T03:43:48;101488.41;;;18.00;72.18
55610;BME280;41486;52.502;13.486;2023-07-08T03:46:20;101489.41;;;17.99;73.51
55610;BME280;41486;52.502;13.486;2023-07-08T03:48:51;101483.19;;;18.46;70.17
55610;BME280;41486;52.502;13.486;2023-07-08T03:51:23;101483.13;;;18.56;69.84
55610;BME280;41486;52.502;13.486;2023-07-08T03:53:52;101488.81;;;19.07;66.99
55610;BME280;41486;52.502;13.486;2023-07-08T03:56:22;101487.38;;;18.95;66.95
55610;BME280;41486;52.502;13.486;2023-07-08T03:58:50;101495.16;;;18.32;70.63
55610;BME280;41486;52.502;13.486;2023-07-08T04:01:21;101498.69;;;18.23;71.77
55610;BME280;41486;52.502;13.486;2023-07-08T04:03:51;101496.44;;;18.28;71.95
55610;BME280;41486;52.502;13.486;2023-07-08T04:06:22;101502.31;;;18.59;70.35
55610;BME280;41486;52.502;13.486;2023-07-08T04:08:51;101496.53;;;18.64;69.98
55610;BME280;41486;52.502;13.486;2023-07-08T04:11:20;101494.19;;;18.33;71.45
55610;BME280;41486;52.502;13.486;2023-07-08T04:13:49;101505.88;;;18.68;69.81
55610;BME280;41486;52.502;13.486;2023-07-08T04:16:19;101494.16;;;19.07;67.24
55610;BME280;41486;52.502;13.486;2023-07-08T04:18:49;101500.25;;;19.17;66.47
55610;BME280;41486;52.502;13.486;2023-07-08T04:21:23;101496.91;;;19.15;66.33
55610;BME280;41486;52.502;13.486;2023-07-08T04:23:51;101492.53;;;19.32;65.18
55610;BME280;41486;52.502;13.486;2023-07-08T04:26:21;101499.50;;;19.07;66.09
55610;BME280;41486;52.502;13.486;2023-07-08T04:28:50;101503.59;;;19.01;66.95
55610;BME280;41486;52.502;13.486;2023-07-08T04:31:18;101501.09;;;19.00;67.55
55610;BME280;41486;52.502;13.486;2023-07-08T04:33:46;101495.41;;;18.85;68.48
55610;BME280;41486;52.502;13.486;2023-07-08T04:36:15;101505.28;;;19.20;66.43
55610;BME280;41486;52.502;13.486;2023-07-08T04:38:45;101499.50;;;19.07;67.47
55610;BME280;41486;52.502;13.486;2023-07-08T04:41:16;101500.56;;;19.14;67.36
55610;BME280;41486;52.502;13.486;2023-07-08T04:43:44;101497.00;;;19.50;65.37
55610;BME280;41486;52.502;13.486;2023-07-08T04:46:19;101497.19;;;19.12;67.56
55610;BME280;41486;52.502;13.486;2023-07-08T04:48:47;101505.47;;;18.91;69.24
55610;BME280;41486;52.502;13.486;2023-07-08T04:51:16;101504.59;;;19.00;68.77
55610;BME280;41486;52.502;13.486;2023-07-08T04:53:47;101504.00;;;19.25;68.07
55610;BME280;41486;52.502;13.486;2023-07-08T04:56:15;101499.38;;;19.53;65.88
55610;BME280;41486;52.502;13.486;2023-07-08T04:58:43;101498.84;;;19.49;66.87
55610;BME280;41486;52.502;13.486;2023-07-08T05:01:12;101500.72;;;19.57;66.04
55610;BME280;41486;52.502;13.486;2023-07-08T05:03:40;101505.19;;;19.48;65.50
55610;BME280;41486;52.502;13.486;2023-07-08T05:06:08;101502.72;;;19.55;66.31
55610;BME280;41486;52.502;13.486;2023-07-08T05:08:36;101511.22;;;19.77;65.56
55610;BME280;41486;52.502;13.486;2023-07-08T05:11:06;101509.56;;;19.76;64.53
55610;BME280;41486;52.502;13.486;2023-07-08T05:13:34;101500.03;;;19.73;64.44
55610;BME280;41486;52.502;13.486;2023-07-08T05:16:03;101503.72;;;19.54;64.82
55610;BME280;41486;52.502;13.486;2023-07-08T05:18:31;101505.13;;;19.40;66.61
55610;BME280;41486;52.502;13.486;2023-07-08T05:20:59;101514.81;;;19.41;66.31
55610;BME280;41486;52.502;13.486;2023-07-08T05:23:28;101506.19;;;19.47;66.69
55610;BME280;41486;52.502;13.486;2023-07-08T05:25:59;101504.91;;;19.78;65.82
55610;BME280;41486;52.502;13.486;2023-07-08T05:28:29;101504.13;;;19.85;65.50
55610;BME280;41486;52.502;13.486;2023-07-08T05:30:57;101506.88;;;20.02;63.98
55610;BME280;41486;52.502;13.486;2023-07-08T05:33:29;101503.13;;;19.86;66.52
55610;BME280;41486;52.502;13.486;2023-07-08T05:35:59;101505.81;;;19.86;66.92
55610;BME280;41486;52.502;13.486;2023-07-08T05:38:28;101515.06;;;20.00;66.34
55610;BME280;41486;52.502;13.486;2023-07-08T05:40:58;101511.75;;;20.07;66.47
55610;BME280;41486;52.502;13.486;2023-07-08T05:43:26;101507.09;;;20.09;66.76
55610;BME280;41486;52.502;13.486;2023-07-08T05:45:59;101512.44;;;20.09;67.54
55610;BME280;41486;52.502;13.486;2023-07-08T05:48:38;101505.03;;;20.29;66.77
55610;BME280;41486;52.502;13.486;2023-07-08T05:51:07;101506.50;;;20.23;66.82
55610;BME280;41486;52.502;13.486;2023-07-08T05:53:35;101506.34;;;20.25;65.87
55610;BME280;41486;52.502;13.486;2023-07-08T05:56:03;101514.38;;;20.33;65.35
55610;BME280;41486;52.502;13.486;2023-07-08T05:58:32;101506.22;;;20.35;64.62
55610;BME280;41486;52.502;13.486;2023-07-08T06:01:01;101518.16;;;20.57;63.65
55610;BME280;41486;52.502;13.486;2023-07-08T06:03:33;101511.81;;;20.58;64.32
55610;BME280;41486;52.502;13.486;2023-07-08T06:06:01;101520.50;;;20.60;64.20
55610;BME280;41486;52.502;13.486;2023-07-08T06:08:31;101525.97;;;20.93;63.33
55610;BME280;41486;52.502;13.486;2023-07-08T06:10:59;101523.78;;;20.88;63.55
55610;BME280;41486;52.502;13.486;2023-07-08T06:13:28;101527.16;;;20.90;64.71
55610;BME280;41486;52.502;13.486;2023-07-08T06:15:59;101532.84;;;21.04;62.63
55610;BME280;41486;52.502;13.486;2023-07-08T06:18:28;101530.84;;;20.98;63.43
55610;BME280;41486;52.502;13.486;2023-07-08T06:20:57;101528.84;;;21.08;63.22
55610;BME280;41486;52.502;13.486;2023-07-08T06:23:26;101522.66;;;21.07;63.15
55610;BME280;41486;52.502;13.486;2023-07-08T06:25:54;101528.50;;;21.11;62.79
55610;BME280;41486;52.502;13.486;2023-07-08T06:28:23;101528.19;;;21.22;62.82
55610;BME280;41486;52.502;13.486;2023-07-08T06:30:53;101536.56;;;21.27;62.56
55610;BME280;41486;52.502;13.486;2023-07-08T06:33:21;101535.06;;;21.41;60.08
55610;BME280;41486;52.502;13.486;2023-07-08T06:35:51;101540.75;;;21.47;59.81
55610;BME280;41486;52.502;13.486;2023-07-08T06:38:19;101536.06;;;21.49;61.17
55610;BME280;41486;52.502;13.486;2023-07-08T06:40:47;101538.59;;;21.58;60.55
55610;BME280;41486;52.502;13.486;2023-07-08T06:43:15;101536.72;;;21.67;60.01
55610;BME280;41486;52.502;13.486;2023-07-08T06:45:49;101529.22;;;21.71;60.02
55610;BME280;41486;52.502;13.486;2023-07-08T06:48:17;101530.72;;;21.82;58.74
55610;BME280;41486;52.502;13.486;2023-07-08T06:50:45;101525.00;;;21.85;58.67
55610;BME280;41486;52.502;13.486;2023-07-08T06:53:15;101523.97;;;21.94;57.83
55610;BME280;41486;52.502;13.486;2023-07-08T06:55:44;101520.56;;;22.17;57.87
55610;BME280;41486;52.502;13.486;2023-07-08T06:58:12;101523.22;;;22.25;59.45
55610;BME280;41486;52.502;13.486;2023-07-08T07:00:41;101526.56;;;22.27;58.98
55610;BME280;41486;52.502;13.486;2023-07-08T07:03:09;101527.31;;;22.52;56.43
55610;BME280;41486;52.502;13.486;2023-07-08T07:05:38;101523.94;;;22.59;54.79
55610;BME280;41486;52.502;13.486;2023-07-08T07:08:06;101520.56;;;22.65;55.61
55610;BME280;41486;52.502;13.486;2023-07-08T07:10:36;101529.38;;;22.74;54.08
55610;BME280;41486;52.502;13.486;2023-07-08T07:13:04;101520.09;;;22.84;53.90
55610;BME280;41486;52.502;13.486;2023-07-08T07:15:35;101530.25;;;22.97;53.42
55610;BME280;41486;52.502;13.486;2023-07-08T07:18:03;101530.78;;;22.93;56.68
55610;BME280;41486;52.502;13.486;2023-07-08T07:20:32;101527.94;;;22.94;55.56
55610;BME280;41486;52.502;13.486;2023-07-08T07:23:07;101527.03;;;23.02;53.80
55610;BME280;41486;52.502;13.486;2023-07-08T07:25:36;101528.09;;;23.24;53.75
55610;BME280;41486;52.502;13.486;2023-07-08T07:28:05;101529.75;;;23.25;53.43
55610;BME280;41486;52.502;13.486;2023-07-08T07:30:34;101524.38;;;23.25;52.92
55610;BME280;41486;52.502;13.486;2023-07-08T07:33:05;101533.09;;;23.27;53.08
55610;BME280;41486;52.502;13.486;2023-07-08T07:35:33;101533.31;;;23.41;51.43
55610;BME280;41486;52.502;13.486;2023-07-08T07:38:01;101526.22;;;23.48;52.55
55610;BME280;41486;52.502;13.486;2023-07-08T07:40:29;101525.66;;;23.53;54.33
55610;BME280;41486;52.502;13.486;2023-07-08T07:42:59;101518.19;;;23.63;54.19
55610;BME280;41486;52.502;13.486;2023-07-08T07:45:27;101525.31;;;23.71;51.60
55610;BME280;41486;52.502;13.486;2023-07-08T07:47:55;101516.13;;;24.03;50.80
55610;BME280;41486;52.502;13.486;2023-07-08T07:50:23;101523.06;;;23.98;51.40
55610;BME280;41486;52.502;13.486;2023-07-08T07:52:51;101521.84;;;24.00;52.22
55610;BME280;41486;52.502;13.486;2023-07-08T07:55:19;101519.63;;;24.04;51.68
55610;BME280;41486;52.502;13.486;2023-07-08T07:57:47;101518.72;;;24.12;51.55
55610;BME280;41486;52.502;13.486;2023-07-08T08:00:17;101513.97;;;24.14;51.27
55610;BME280;41486;52.502;13.486;2023-07-08T08:02:45;101517.47;;;24.29;49.25
55610;BME280;41486;52.502;13.486;2023-07-08T08:05:13;101512.22;;;24.57;46.97
55610;BME280;41486;52.502;13.486;2023-07-08T08:07:41;101515.22;;;24.63;46.89
55610;BME280;41486;52.502;13.486;2023-07-08T08:10:09;101527.00;;;24.62;48.22
55610;BME280;41486;52.502;13.486;2023-07-08T08:12:37;101527.09;;;24.68;49.86
55610;BME280;41486;52.502;13.486;2023-07-08T08:15:21;101521.41;;;24.78;49.14
55610;BME280;41486;52.502;13.486;2023-07-08T08:17:50;101523.56;;;24.68;49.21
55610;BME280;41486;52.502;13.486;2023-07-08T08:20:21;101524.88;;;24.94;47.14
55610;BME280;41486;52.502;13.486;2023-07-08T08:22:50;101527.59;;;24.94;48.08
55610;BME280;41486;52.502;13.486;2023-07-08T08:25:20;101525.50;;;24.96;48.33
55610;BME280;41486;52.502;13.486;2023-07-08T08:27:48;101527.81;;;24.99;48.76
55610;BME280;41486;52.502;13.486;2023-07-08T08:30:18;101523.34;;;25.06;49.27
55610;BME280;41486;52.502;13.486;2023-07-08T08:32:48;101534.38;;;25.11;49.00
55610;BME280;41486;52.502;13.486;2023-07-08T08:35:19;101532.47;;;25.27;47.29
55610;BME280;41486;52.502;13.486;2023-07-08T08:37:47;101528.72;;;25.06;48.70
55610;BME280;41486;52.502;13.486;2023-07-08T08:40:17;101526.81;;;25.43;45.96
55610;BME280;41486;52.502;13.486;2023-07-08T08:42:52;101529.75;;;25.48;46.79
55610;BME280;41486;52.502;13.486;2023-07-08T08:45:24;101532.91;;;25.52;47.31
55610;BME280;41486;52.502;13.486;2023-07-08T08:47:59;101533.19;;;25.64;44.71
55610;BME280;41486;52.502;13.486;2023-07-08T08:50:31;101530.56;;;25.71;46.97
55610;BME280;41486;52.502;13.486;2023-07-08T08:53:01;101534.31;;;25.76;46.31
55610;BME280;41486;52.502;13.486;2023-07-08T08:55:31;101524.84;;;25.87;46.72
55610;BME280;41486;52.502;13.486;2023-07-08T08:58:09;101526.69;;;25.87;47.99
55610;BME280;41486;52.502;13.486;2023-07-08T09:00:51;101531.06;;;25.88;46.10
55610;BME280;41486;52.502;13.486;2023-07-08T09:03:35;101530.84;;;25.82;47.35
55610;BME280;41486;52.502;13.486;2023-07-08T09:06:13;101536.88;;;26.20;43.90
55610;BME280;41486;52.502;13.486;2023-07-08T09:08:42;101532.34;;;26.27;43.38
55610;BME280;41486;52.502;13.486;2023-07-08T09:11:19;101537.53;;;26.22;44.98
55610;BME280;41486;52.502;13.486;2023-07-08T09:13:51;101521.94;;;26.17;44.48
55610;BME280;41486;52.502;13.486;2023-07-08T09:16:26;101523.41;;;26.20;43.10
55610;BME280;41486;52.502;13.486;2023-07-08T09:19:04;101521.34;;;26.77;36.81
55610;BME280;41486;52.502;13.486;2023-07-08T09:21:37;101529.41;;;26.70;41.10
55610;BME280;41486;52.502;13.486;2023-07-08T09:24:14;101520.25;;;26.65;41.35
55610;BME280;41486;52.502;13.486;2023-07-08T09:26:45;101526.03;;;26.61;41.85
55610;BME280;41486;52.502;13.486;2023-07-08T09:29:15;101525.44;;;26.66;39.46
55610;BME280;41486;52.502;13.486;2023-07-08T09:31:43;101525.66;;;26.65;40.86
55610;BME280;41486;52.502;13.486;2023-07-08T09:34:15;101521.34;;;26.77;40.37
55610;BME280;41486;52.502;13.486;2023-07-08T09:36:47;101518.19;;;26.73;41.79
55610;BME280;41486;52.502;13.486;2023-07-08T09:39:16;101521.63;;;27.02;37.86
55610;BME280;41486;52.502;13.486;2023-07-08T09:41:47;101520.16;;;27.06;37.03
55610;BME280;41486;52.502;13.486;2023-07-08T09:44:21;101520.56;;;27.10;37.36
55610;BME280;41486;52.502;13.486;2023-07-08T09:46:53;101520.16;;;27.13;34.94
55610;BME280;41486;52.502;13.486;2023-07-08T09:49:27;101520.16;;;27.06;34.70
55610;BME280;41486;52.502;13.486;2023-07-08T09:51:56;101519.13;;;27.21;37.02
55610;BME280;41486;52.502;13.486;2023-07-08T09:54:25;101525.19;;;27.43;36.78
55610;BME280;41486;52.502;13.486;2023-07-08T09:56:59;101512.47;;;27.70;35.35
55610;BME280;41486;52.502;13.486;2023-07-08T09:59:31;101519.31;;;27.73;36.45
55610;BME280;41486;52.502;13.486;2023-07-08T10:02:12;101520.13;;;27.80;35.46
55610;BME280;41486;52.502;13.486;2023-07-08T10:04:52;101521.97;;;28.00;35.22
55610;BME280;41486;52.502;13.486;2023-07-08T10:07:20;101517.03;;;27.83;33.57
55610;BME280;41486;52.502;13.486;2023-07-08T10:09:51;101514.72;;;27.87;34.50
55610;BME280;41486;52.502;13.486;2023-07-08T10:12:23;101517.66;;;27.92;33.29
55610;BME280;41486;52.502;13.486;2023-07-08T10:14:54;101514.88;;;28.19;32.03
55610;BME280;41486;52.502;13.486;2023-07-08T10:17:24;101507.59;;;28.13;33.50
55610;BME280;41486;52.502;13.486;2023-07-08T10:19:57;101509.44;;;28.19;30.32
55610;BME280;41486;52.502;13.486;2023-07-08T10:22:36;101501.16;;;28.14;31.11
55610;BME280;41486;52.502;13.486;2023-07-08T10:25:14;101505.94;;;28.57;31.68
55610;BME280;41486;52.502;13.486;2023-07-08T10:27:52;101506.94;;;29.02;31.01
55610;BME280;41486;52.502;13.486;2023-07-08T10:30:26;101503.81;;;29.55;31.91
55610;BME280;41486;52.502;13.486;2023-07-08T10:33:12;101504.63;;;29.31;29.50
55610;BME280;41486;52.502;13.486;2023-07-08T10:36:05;101505.69;;;29.55;29.75
55610;BME280;41486;52.502;13.486;2023-07-08T10:38:43;101509.22;;;30.18;29.85
55610;BME280;41486;52.502;13.486;2023-07-08T10:41:21;101504.53;;;30.25;28.88
55610;BME280;41486;52.502;13.486;2023-07-08T10:44:00;101499.50;;;30.41;29.35
55610;BME280;41486;52.502;13.486;2023-07-08T10:46:38;101505.75;;;30.41;28.61
55610;BME280;41486;52.502;13.486;2023-07-08T10:49:31;101506.81;;;31.01;28.62
55610;BME280;41486;52.502;13.486;2023-07-08T10:52:17;101495.94;;;30.59;28.96
55610;BME280;41486;52.502;13.486;2023-07-08T10:55:01;101502.72;;;30.49;28.73
55610;BME280;41486;52.502;13.486;2023-07-08T10:57:47;101506.47;;;30.67;28.14
55610;BME280;41486;52.502;13.486;2023-07-08T11:00:24;101504.22;;;31.06;27.20
55610;BME280;41486;52.502;13.486;2023-07-08T11:03:34;101510.13;;;30.12;27.38
55610;BME280;41486;52.502;13.486;2023-07-08T11:06:08;101503.06;;;29.85;28.40
55610;BME280;41486;52.502;13.486;2023-07-08T11:08:42;101501.25;;;30.53;27.37
55610;BME280;41486;52.502;13.486;2023-07-08T11:11:19;101493.09;;;30.84;27.10
55610;BME280;41486;52.502;13.486;2023-07-08T11:13:57;101496.78;;;32.08;27.71
55610;BME280;41486;52.502;13.486;2023-07-08T11:16:30;101495.28;;;33.05;25.25
55610;BME280;41486;52.502;13.486;2023-07-08T11:19:07;101499.06;;;33.21;24.41
55610;BME280;41486;52.502;13.486;2023-07-08T11:21:41;101498.50;;;33.75;25.15
55610;BME280;41486;52.502;13.486;2023-07-08T11:24:21;101496.31;;;33.55;23.54
55610;BME280;41486;52.502;13.486;2023-07-08T11:26:54;101490.44;;;34.57;23.42
55610;BME280;41486;52.502;13.486;2023-07-08T11:29:28;101491.59;;;36.74;22.23
55610;BME280;41486;52.502;13.486;2023-07-08T11:31:59;101488.88;;;36.84;21.72
55610;BME280;41486;52.502;13.486;2023-07-08T11:34:27;101490.69;;;34.28;23.50
55610;BME280;41486;52.502;13.486;2023-07-08T11:36:57;101491.03;;;34.37;23.66
55610;BME280;41486;52.502;13.486;2023-07-08T11:39:31;101481.81;;;35.94;22.62
55610;BME280;41486;52.502;13.486;2023-07-08T11:42:19;101479.69;;;36.01;22.19
55610;BME280;41486;52.502;13.486;2023-07-08T11:44:51;101478.44;;;36.81;20.75
55610;BME280;41486;52.502;13.486;2023-07-08T11:47:24;101476.22;;;36.42;20.50
55610;BME280;41486;52.502;13.486;2023-07-08T11:49:53;101473.13;;;36.07;20.83
55610;BME280;41486;52.502;13.486;2023-07-08T11:52:23;101470.84;;;35.89;21.23
55610;BME280;41486;52.502;13.486;2023-07-08T11:55:08;101462.88;;;35.29;21.85
55610;BME280;41486;52.502;13.486;2023-07-08T11:57:42;101471.41;;;34.67;21.38
55610;BME280;41486;52.502;13.486;2023-07-08T12:00:17;101469.72;;;37.81;20.24
55610;BME280;41486;52.502;13.486;2023-07-08T12:02:53;101480.13;;;39.38;18.66
55610;BME280;41486;52.502;13.486;2023-07-08T12:05:30;101465.31;;;36.93;20.56
55610;BME280;41486;52.502;13.486;2023-07-08T12:08:00;101464.44;;;37.08;20.04
55610;BME280;41486;52.502;13.486;2023-07-08T12:10:37;101453.56;;;35.78;21.16
55610;BME280;41486;52.502;13.486;2023-07-08T12:13:11;101453.50;;;36.72;21.03
55610;BME280;41486;52.502;13.486;2023-07-08T12:15:41;101457.03;;;36.78;20.13
55610;BME280;41486;52.502;13.486;2023-07-08T12:18:13;101457.94;;;35.84;21.16
55610;BME280;41486;52.502;13.486;2023-07-08T12:20:45;101450.44;;;33.74;22.67
55610;BME280;41486;52.502;13.486;2023-07-08T12:23:15;101460.22;;;34.69;22.71
55610;BME280;41486;52.502;13.486;2023-07-08T12:25:45;101448.25;;;32.63;24.09
55610;BME280;41486;52.502;13.486;2023-07-08T12:28:14;101449.50;;;32.72;24.78
55610;BME280;41486;52.502;13.486;2023-07-08T12:30:44;101443.66;;;32.81;23.58
55610;BME280;41486;52.502;13.486;2023-07-08T12:33:15;101443.78;;;32.28;23.92
55610;BME280;41486;52.502;13.486;2023-07-08T12:35:45;101436.16;;;32.42;23.90
55610;BME280;41486;52.502;13.486;2023-07-08T12:38:20;101438.69;;;32.32;24.59
55610;BME280;41486;52.502;13.486;2023-07-08T12:40:51;101427.75;;;31.74;25.23
55610;BME280;41486;52.502;13.486;2023-07-08T12:43:20;101437.69;;;32.09;25.33
55610;BME280;41486;52.502;13.486;2023-07-08T12:45:48;101422.06;;;31.75;24.97
55610;BME280;41486;52.502;13.486;2023-07-08T12:48:16;101426.75;;;32.50;24.93
55610;BME280;41486;52.502;13.486;2023-07-08T12:50:44;101430.38;;;32.55;25.76
55610;BME280;41486;52.502;13.486;2023-07-08T12:53:12;101427.34;;;32.69;25.09
55610;BME280;41486;52.502;13.486;2023-07-08T12:55:42;101421.06;;;32.51;24.66
55610;BME280;41486;52.502;13.486;2023-07-08T12:58:20;101419.59;;;32.95;25.38
55610;BME280;41486;52.502;13.486;2023-07-08T13:00:52;101425.34;;;33.32;23.86